Terminal Aerodrome Forecast
Issued by NWS

Home | Current Version | Previous Version | Text Only | Print | Product List | Glossary On
Versions: 1 2 3 4 5 6 7 8 9 10 11 12 13 14 15 16
000
FTAK31 PANC 210540
TAFAIL
TAF
PAIL 210540Z 2106/2206 VRB05KT P6SM OVC100
     FM210900 08012KT P6SM -RA SCT025 OVC040
     FM211600 08015G25KT P6SM -RA SCT015 OVC025
     FM212200 09005KT P6SM -RA SCT007 BKN015=

USA.gov is the U.S. government's official web portal to all federal, state and local government web resources and services.